sensor_id;sensor_type;location;lat;lon;timestamp;P1;durP1;ratioP1;P2;durP2;ratioP2
5981;SDS011;3018;48.730;9.336;2022-07-29T00:02:11;5.30;;;4.90;;
5981;SDS011;3018;48.730;9.336;2022-07-29T00:04:37;6.75;;;4.82;;
5981;SDS011;3018;48.730;9.336;2022-07-29T00:07:03;6.50;;;5.40;;
5981;SDS011;3018;48.730;9.336;2022-07-29T00:09:30;7.97;;;5.55;;
5981;SDS011;3018;48.730;9.336;2022-07-29T00:11:56;7.43;;;5.00;;
5981;SDS011;3018;48.730;9.336;2022-07-29T00:14:24;5.20;;;4.70;;
5981;SDS011;3018;48.730;9.336;2022-07-29T00:16:51;5.18;;;4.78;;
5981;SDS011;3018;48.730;9.336;2022-07-29T00:19:18;6.28;;;5.40;;
5981;SDS011;3018;48.730;9.336;2022-07-29T00:21:44;5.88;;;5.10;;
5981;SDS011;3018;48.730;9.336;2022-07-29T00:24:10;6.13;;;5.55;;
5981;SDS011;3018;48.730;9.336;2022-07-29T00:26:37;5.50;;;4.72;;
5981;SDS011;3018;48.730;9.336;2022-07-29T00:29:03;5.72;;;5.43;;
5981;SDS011;3018;48.730;9.336;2022-07-29T00:31:29;5.38;;;5.03;;
5981;SDS011;3018;48.730;9.336;2022-07-29T00:33:57;6.05;;;5.40;;
5981;SDS011;3018;48.730;9.336;2022-07-29T00:36:26;6.25;;;4.72;;
5981;SDS011;3018;48.730;9.336;2022-07-29T00:38:52;6.95;;;6.28;;
5981;SDS011;3018;48.730;9.336;2022-07-29T00:41:19;6.07;;;5.30;;
5981;SDS011;3018;48.730;9.336;2022-07-29T00:43:45;6.97;;;5.72;;
5981;SDS011;3018;48.730;9.336;2022-07-29T00:46:11;6.13;;;5.70;;
5981;SDS011;3018;48.730;9.336;2022-07-29T00:48:38;6.10;;;5.28;;
5981;SDS011;3018;48.730;9.336;2022-07-29T00:51:06;8.05;;;6.00;;
5981;SDS011;3018;48.730;9.336;2022-07-29T00:53:35;6.57;;;5.30;;
5981;SDS011;3018;48.730;9.336;2022-07-29T00:56:01;5.93;;;5.53;;
5981;SDS011;3018;48.730;9.336;2022-07-29T00:58:27;8.20;;;5.57;;
5981;SDS011;3018;48.730;9.336;2022-07-29T01:00:54;6.75;;;5.13;;
5981;SDS011;3018;48.730;9.336;2022-07-29T01:03:20;7.18;;;5.75;;
5981;SDS011;3018;48.730;9.336;2022-07-29T01:05:46;6.15;;;5.60;;
5981;SDS011;3018;48.730;9.336;2022-07-29T01:08:14;7.30;;;6.57;;
5981;SDS011;3018;48.730;9.336;2022-07-29T01:10:41;8.27;;;6.45;;
5981;SDS011;3018;48.730;9.336;2022-07-29T01:13:08;6.68;;;6.07;;
5981;SDS011;3018;48.730;9.336;2022-07-29T01:15:36;10.27;;;5.85;;
5981;SDS011;3018;48.730;9.336;2022-07-29T01:18:07;6.40;;;5.75;;
5981;SDS011;3018;48.730;9.336;2022-07-29T01:20:40;8.02;;;6.57;;
5981;SDS011;3018;48.730;9.336;2022-07-29T01:28:52;6.10;;;5.72;;
5981;SDS011;3018;48.730;9.336;2022-07-29T01:31:24;6.32;;;5.72;;
5981;SDS011;3018;48.730;9.336;2022-07-29T01:33:54;6.20;;;5.63;;
5981;SDS011;3018;48.730;9.336;2022-07-29T01:36:22;7.15;;;5.57;;
5981;SDS011;3018;48.730;9.336;2022-07-29T01:39:00;9.10;;;5.57;;
5981;SDS011;3018;48.730;9.336;2022-07-29T01:41:28;6.30;;;5.45;;
5981;SDS011;3018;48.730;9.336;2022-07-29T01:43:59;5.72;;;5.10;;
5981;SDS011;3018;48.730;9.336;2022-07-29T01:46:27;5.72;;;5.25;;
5981;SDS011;3018;48.730;9.336;2022-07-29T01:48:55;5.50;;;5.20;;
5981;SDS011;3018;48.730;9.336;2022-07-29T01:51:24;6.00;;;5.40;;
5981;SDS011;3018;48.730;9.336;2022-07-29T01:53:54;7.63;;;5.25;;
5981;SDS011;3018;48.730;9.336;2022-07-29T01:56:21;6.00;;;5.50;;
5981;SDS011;3018;48.730;9.336;2022-07-29T01:58:48;5.20;;;4.88;;
5981;SDS011;3018;48.730;9.336;2022-07-29T02:01:17;6.68;;;4.78;;
5981;SDS011;3018;48.730;9.336;2022-07-29T02:03:44;5.93;;;4.93;;
5981;SDS011;3018;48.730;9.336;2022-07-29T02:06:11;5.10;;;4.70;;
5981;SDS011;3018;48.730;9.336;2022-07-29T02:08:38;5.10;;;4.78;;
5981;SDS011;3018;48.730;9.336;2022-07-29T02:11:05;9.40;;;4.88;;
5981;SDS011;3018;48.730;9.336;2022-07-29T02:13:32;5.40;;;4.90;;
5981;SDS011;3018;48.730;9.336;2022-07-29T02:16:00;9.35;;;5.53;;
5981;SDS011;3018;48.730;9.336;2022-07-29T02:18:28;5.78;;;5.28;;
5981;SDS011;3018;48.730;9.336;2022-07-29T02:20:56;5.13;;;4.70;;
5981;SDS011;3018;48.730;9.336;2022-07-29T02:23:24;6.18;;;5.05;;
5981;SDS011;3018;48.730;9.336;2022-07-29T02:25:51;5.18;;;4.68;;
5981;SDS011;3018;48.730;9.336;2022-07-29T02:28:18;5.22;;;4.57;;
5981;SDS011;3018;48.730;9.336;2022-07-29T02:30:45;6.63;;;5.00;;
5981;SDS011;3018;48.730;9.336;2022-07-29T02:33:13;4.90;;;4.60;;
5981;SDS011;3018;48.730;9.336;2022-07-29T02:35:41;6.45;;;4.72;;
5981;SDS011;3018;48.730;9.336;2022-07-29T02:38:10;5.07;;;4.65;;
5981;SDS011;3018;48.730;9.336;2022-07-29T02:40:55;7.00;;;4.70;;
5981;SDS011;3018;48.730;9.336;2022-07-29T02:43:22;5.80;;;5.18;;
5981;SDS011;3018;48.730;9.336;2022-07-29T02:45:50;5.47;;;5.07;;
5981;SDS011;3018;48.730;9.336;2022-07-29T02:48:17;5.32;;;4.82;;
5981;SDS011;3018;48.730;9.336;2022-07-29T02:50:47;6.32;;;5.47;;
5981;SDS011;3018;48.730;9.336;2022-07-29T02:53:15;5.57;;;5.20;;
5981;SDS011;3018;48.730;9.336;2022-07-29T02:55:44;5.32;;;5.03;;
5981;SDS011;3018;48.730;9.336;2022-07-29T02:58:13;5.65;;;5.15;;
5981;SDS011;3018;48.730;9.336;2022-07-29T03:00:41;4.47;;;4.28;;
5981;SDS011;3018;48.730;9.336;2022-07-29T03:03:09;13.45;;;4.85;;
5981;SDS011;3018;48.730;9.336;2022-07-29T03:05:37;9.52;;;4.45;;
5981;SDS011;3018;48.730;9.336;2022-07-29T03:08:05;5.00;;;4.57;;
5981;SDS011;3018;48.730;9.336;2022-07-29T03:10:32;7.43;;;4.68;;
5981;SDS011;3018;48.730;9.336;2022-07-29T03:12:59;4.95;;;4.55;;
5981;SDS011;3018;48.730;9.336;2022-07-29T03:15:26;4.97;;;4.40;;
5981;SDS011;3018;48.730;9.336;2022-07-29T03:17:53;7.43;;;4.97;;
5981;SDS011;3018;48.730;9.336;2022-07-29T03:20:20;4.60;;;4.40;;
5981;SDS011;3018;48.730;9.336;2022-07-29T03:22:47;5.10;;;4.70;;
5981;SDS011;3018;48.730;9.336;2022-07-29T03:25:15;5.32;;;4.82;;
5981;SDS011;3018;48.730;9.336;2022-07-29T03:27:41;5.22;;;4.93;;
5981;SDS011;3018;48.730;9.336;2022-07-29T03:30:08;6.07;;;4.78;;
5981;SDS011;3018;48.730;9.336;2022-07-29T03:32:35;5.25;;;4.60;;
5981;SDS011;3018;48.730;9.336;2022-07-29T03:35:01;5.30;;;4.80;;
5981;SDS011;3018;48.730;9.336;2022-07-29T03:37:28;5.43;;;4.78;;
5981;SDS011;3018;48.730;9.336;2022-07-29T03:39:55;5.88;;;5.22;;
5981;SDS011;3018;48.730;9.336;2022-07-29T03:42:24;7.20;;;4.50;;
5981;SDS011;3018;48.730;9.336;2022-07-29T03:44:50;5.63;;;4.47;;
5981;SDS011;3018;48.730;9.336;2022-07-29T03:47:17;6.05;;;4.18;;
5981;SDS011;3018;48.730;9.336;2022-07-29T03:49:44;5.00;;;4.30;;
5981;SDS011;3018;48.730;9.336;2022-07-29T03:52:12;5.00;;;4.25;;
5981;SDS011;3018;48.730;9.336;2022-07-29T03:54:39;4.93;;;3.85;;
5981;SDS011;3018;48.730;9.336;2022-07-29T03:57:05;6.22;;;4.05;;
5981;SDS011;3018;48.730;9.336;2022-07-29T03:59:34;3.80;;;3.63;;
5981;SDS011;3018;48.730;9.336;2022-07-29T04:02:00;5.03;;;3.92;;
5981;SDS011;3018;48.730;9.336;2022-07-29T04:04:28;4.55;;;4.10;;
5981;SDS011;3018;48.730;9.336;2022-07-29T04:06:54;4.68;;;4.07;;
5981;SDS011;3018;48.730;9.336;2022-07-29T04:09:20;5.30;;;3.70;;
5981;SDS011;3018;48.730;9.336;2022-07-29T04:11:47;4.68;;;4.18;;
5981;SDS011;3018;48.730;9.336;2022-07-29T04:14:13;9.10;;;4.40;;
5981;SDS011;3018;48.730;9.336;2022-07-29T04:16:41;4.30;;;3.95;;
5981;SDS011;3018;48.730;9.336;2022-07-29T04:19:07;3.90;;;3.67;;
5981;SDS011;3018;48.730;9.336;2022-07-29T04:21:36;7.10;;;4.40;;
5981;SDS011;3018;48.730;9.336;2022-07-29T04:24:02;5.70;;;4.43;;
5981;SDS011;3018;48.730;9.336;2022-07-29T04:26:28;4.45;;;4.05;;
5981;SDS011;3018;48.730;9.336;2022-07-29T04:28:55;5.30;;;4.00;;
5981;SDS011;3018;48.730;9.336;2022-07-29T04:31:21;4.78;;;4.38;;
5981;SDS011;3018;48.730;9.336;2022-07-29T04:33:48;4.30;;;4.10;;
5981;SDS011;3018;48.730;9.336;2022-07-29T04:36:15;5.13;;;4.55;;
5981;SDS011;3018;48.730;9.336;2022-07-29T04:38:41;5.63;;;5.18;;
5981;SDS011;3018;48.730;9.336;2022-07-29T04:41:07;7.10;;;5.43;;
5981;SDS011;3018;48.730;9.336;2022-07-29T04:43:34;7.38;;;5.90;;
5981;SDS011;3018;48.730;9.336;2022-07-29T04:46:00;5.95;;;5.03;;
5981;SDS011;3018;48.730;9.336;2022-07-29T04:48:26;5.63;;;5.10;;
5981;SDS011;3018;48.730;9.336;2022-07-29T04:50:54;6.07;;;5.63;;
5981;SDS011;3018;48.730;9.336;2022-07-29T04:53:20;5.55;;;5.03;;
5981;SDS011;3018;48.730;9.336;2022-07-29T04:55:46;9.88;;;5.75;;
5981;SDS011;3018;48.730;9.336;2022-07-29T04:58:13;5.32;;;5.03;;
5981;SDS011;3018;48.730;9.336;2022-07-29T05:00:39;9.30;;;6.03;;
5981;SDS011;3018;48.730;9.336;2022-07-29T05:03:05;7.03;;;6.43;;
5981;SDS011;3018;48.730;9.336;2022-07-29T05:05:32;7.30;;;6.65;;
5981;SDS011;3018;48.730;9.336;2022-07-29T05:07:59;8.20;;;7.50;;
5981;SDS011;3018;48.730;9.336;2022-07-29T05:10:25;8.68;;;7.68;;
5981;SDS011;3018;48.730;9.336;2022-07-29T05:12:52;9.13;;;7.90;;
5981;SDS011;3018;48.730;9.336;2022-07-29T05:15:18;7.63;;;6.93;;
5981;SDS011;3018;48.730;9.336;2022-07-29T05:17:44;11.23;;;5.55;;
5981;SDS011;3018;48.730;9.336;2022-07-29T05:20:11;6.18;;;5.65;;
5981;SDS011;3018;48.730;9.336;2022-07-29T05:22:37;5.70;;;5.28;;
5981;SDS011;3018;48.730;9.336;2022-07-29T05:25:05;5.60;;;5.20;;
5981;SDS011;3018;48.730;9.336;2022-07-29T05:27:33;5.25;;;4.95;;
5981;SDS011;3018;48.730;9.336;2022-07-29T05:30:00;7.20;;;6.28;;
5981;SDS011;3018;48.730;9.336;2022-07-29T05:32:26;7.28;;;6.63;;
5981;SDS011;3018;48.730;9.336;2022-07-29T05:34:53;9.23;;;6.75;;
5981;SDS011;3018;48.730;9.336;2022-07-29T05:37:19;7.93;;;7.15;;
5981;SDS011;3018;48.730;9.336;2022-07-29T05:39:45;9.38;;;6.70;;
5981;SDS011;3018;48.730;9.336;2022-07-29T05:42:13;9.00;;;6.78;;
5981;SDS011;3018;48.730;9.336;2022-07-29T05:44:39;8.70;;;6.35;;
5981;SDS011;3018;48.730;9.336;2022-07-29T05:47:05;7.13;;;6.53;;
5981;SDS011;3018;48.730;9.336;2022-07-29T05:49:32;7.70;;;7.00;;
5981;SDS011;3018;48.730;9.336;2022-07-29T05:51:58;8.68;;;6.97;;
5981;SDS011;3018;48.730;9.336;2022-07-29T05:54:24;10.02;;;8.20;;
5981;SDS011;3018;48.730;9.336;2022-07-29T05:56:51;9.00;;;8.10;;
5981;SDS011;3018;48.730;9.336;2022-07-29T05:59:18;9.52;;;7.20;;
5981;SDS011;3018;48.730;9.336;2022-07-29T06:01:45;9.32;;;7.68;;
5981;SDS011;3018;48.730;9.336;2022-07-29T06:04:11;8.23;;;7.50;;
5981;SDS011;3018;48.730;9.336;2022-07-29T06:06:37;8.52;;;7.40;;
5981;SDS011;3018;48.730;9.336;2022-07-29T06:09:03;8.93;;;7.25;;
5981;SDS011;3018;48.730;9.336;2022-07-29T06:11:29;7.80;;;7.00;;
5981;SDS011;3018;48.730;9.336;2022-07-29T06:13:56;10.38;;;8.00;;
5981;SDS011;3018;48.730;9.336;2022-07-29T06:16:23;7.20;;;6.63;;
5981;SDS011;3018;48.730;9.336;2022-07-29T06:18:49;6.97;;;6.47;;
5981;SDS011;3018;48.730;9.336;2022-07-29T06:21:16;7.57;;;7.00;;
5981;SDS011;3018;48.730;9.336;2022-07-29T06:23:42;6.75;;;6.30;;
5981;SDS011;3018;48.730;9.336;2022-07-29T06:26:10;6.95;;;6.45;;
5981;SDS011;3018;48.730;9.336;2022-07-29T06:28:36;8.00;;;7.13;;
5981;SDS011;3018;48.730;9.336;2022-07-29T06:31:02;7.30;;;6.75;;
5981;SDS011;3018;48.730;9.336;2022-07-29T06:33:30;8.50;;;6.93;;
5981;SDS011;3018;48.730;9.336;2022-07-29T06:35:56;7.03;;;6.53;;
5981;SDS011;3018;48.730;9.336;2022-07-29T06:38:23;7.20;;;6.53;;
5981;SDS011;3018;48.730;9.336;2022-07-29T06:40:49;7.70;;;6.20;;
5981;SDS011;3018;48.730;9.336;2022-07-29T06:43:29;7.32;;;6.63;;
5981;SDS011;3018;48.730;9.336;2022-07-29T06:45:57;12.60;;;6.85;;
5981;SDS011;3018;48.730;9.336;2022-07-29T06:48:23;7.75;;;6.93;;
5981;SDS011;3018;48.730;9.336;2022-07-29T06:50:51;6.53;;;5.90;;
5981;SDS011;3018;48.730;9.336;2022-07-29T06:53:17;7.68;;;5.93;;
5981;SDS011;3018;48.730;9.336;2022-07-29T06:55:43;8.20;;;7.50;;
5981;SDS011;3018;48.730;9.336;2022-07-29T06:58:10;8.48;;;6.90;;
5981;SDS011;3018;48.730;9.336;2022-07-29T07:00:36;6.68;;;5.82;;
5981;SDS011;3018;48.730;9.336;2022-07-29T07:03:03;6.25;;;5.70;;
5981;SDS011;3018;48.730;9.336;2022-07-29T07:05:29;19.05;;;14.55;;
5981;SDS011;3018;48.730;9.336;2022-07-29T07:07:56;14.38;;;10.55;;
5981;SDS011;3018;48.730;9.336;2022-07-29T07:10:23;7.75;;;6.68;;
5981;SDS011;3018;48.730;9.336;2022-07-29T07:12:49;6.13;;;5.15;;
5981;SDS011;3018;48.730;9.336;2022-07-29T07:15:15;4.90;;;4.60;;
5981;SDS011;3018;48.730;9.336;2022-07-29T07:17:42;6.40;;;4.97;;
5981;SDS011;3018;48.730;9.336;2022-07-29T07:20:08;5.40;;;4.90;;
5981;SDS011;3018;48.730;9.336;2022-07-29T07:22:34;5.60;;;5.20;;
5981;SDS011;3018;48.730;9.336;2022-07-29T07:25:02;6.28;;;5.82;;
5981;SDS011;3018;48.730;9.336;2022-07-29T07:27:28;5.05;;;4.80;;
5981;SDS011;3018;48.730;9.336;2022-07-29T07:29:55;5.53;;;5.15;;
5981;SDS011;3018;48.730;9.336;2022-07-29T07:32:21;7.13;;;5.53;;
5981;SDS011;3018;48.730;9.336;2022-07-29T07:34:47;5.18;;;4.78;;
5981;SDS011;3018;48.730;9.336;2022-07-29T07:37:14;5.95;;;5.38;;
5981;SDS011;3018;48.730;9.336;2022-07-29T07:39:40;5.88;;;5.38;;
5981;SDS011;3018;48.730;9.336;2022-07-29T07:42:08;6.13;;;4.68;;
5981;SDS011;3018;48.730;9.336;2022-07-29T07:44:36;5.47;;;5.03;;
5981;SDS011;3018;48.730;9.336;2022-07-29T07:47:02;5.53;;;5.13;;
5981;SDS011;3018;48.730;9.336;2022-07-29T07:49:28;13.55;;;5.35;;
5981;SDS011;3018;48.730;9.336;2022-07-29T07:51:55;5.75;;;5.18;;
5981;SDS011;3018;48.730;9.336;2022-07-29T07:54:21;5.40;;;4.90;;
5981;SDS011;3018;48.730;9.336;2022-07-29T07:56:47;6.75;;;5.20;;
5981;SDS011;3018;48.730;9.336;2022-07-29T07:59:16;4.75;;;4.40;;
5981;SDS011;3018;48.730;9.336;2022-07-29T08:01:42;6.50;;;4.90;;
5981;SDS011;3018;48.730;9.336;2022-07-29T08:04:09;4.78;;;4.40;;
5981;SDS011;3018;48.730;9.336;2022-07-29T08:06:35;10.65;;;4.57;;
5981;SDS011;3018;48.730;9.336;2022-07-29T08:09:03;6.40;;;4.57;;
5981;SDS011;3018;48.730;9.336;2022-07-29T08:11:29;5.18;;;4.30;;
5981;SDS011;3018;48.730;9.336;2022-07-29T08:13:56;9.13;;;4.63;;
5981;SDS011;3018;48.730;9.336;2022-07-29T08:16:23;5.20;;;4.55;;
5981;SDS011;3018;48.730;9.336;2022-07-29T08:18:50;4.85;;;4.28;;
5981;SDS011;3018;48.730;9.336;2022-07-29T08:21:16;5.00;;;4.57;;
5981;SDS011;3018;48.730;9.336;2022-07-29T08:23:43;7.40;;;4.90;;
5981;SDS011;3018;48.730;9.336;2022-07-29T08:26:14;5.55;;;4.78;;
5981;SDS011;3018;48.730;9.336;2022-07-29T08:28:41;7.75;;;4.38;;
5981;SDS011;3018;48.730;9.336;2022-07-29T08:31:09;4.10;;;3.78;;
5981;SDS011;3018;48.730;9.336;2022-07-29T08:33:37;6.60;;;4.38;;
5981;SDS011;3018;48.730;9.336;2022-07-29T08:36:04;5.05;;;4.38;;
5981;SDS011;3018;48.730;9.336;2022-07-29T08:38:30;5.38;;;4.38;;
5981;SDS011;3018;48.730;9.336;2022-07-29T08:40:56;3.95;;;3.70;;
5981;SDS011;3018;48.730;9.336;2022-07-29T08:43:23;7.05;;;3.78;;
5981;SDS011;3018;48.730;9.336;2022-07-29T08:45:50;4.35;;;4.05;;
5981;SDS011;3018;48.730;9.336;2022-07-29T08:48:17;3.97;;;3.60;;
5981;SDS011;3018;48.730;9.336;2022-07-29T08:50:45;6.65;;;4.30;;
5981;SDS011;3018;48.730;9.336;2022-07-29T08:53:12;4.03;;;3.75;;
5981;SDS011;3018;48.730;9.336;2022-07-29T08:55:39;5.32;;;4.38;;
5981;SDS011;3018;48.730;9.336;2022-07-29T08:58:06;3.33;;;3.10;;
5981;SDS011;3018;48.730;9.336;2022-07-29T09:00:32;3.95;;;3.65;;
5981;SDS011;3018;48.730;9.336;2022-07-29T09:03:00;4.20;;;3.47;;
5981;SDS011;3018;48.730;9.336;2022-07-29T09:05:27;4.30;;;3.92;;
5981;SDS011;3018;48.730;9.336;2022-07-29T09:07:55;4.15;;;3.75;;
5981;SDS011;3018;48.730;9.336;2022-07-29T09:10:21;5.57;;;3.60;;
5981;SDS011;3018;48.730;9.336;2022-07-29T09:12:47;5.63;;;4.15;;
5981;SDS011;3018;48.730;9.336;2022-07-29T09:15:14;5.07;;;3.30;;
5981;SDS011;3018;48.730;9.336;2022-07-29T09:17:41;4.55;;;3.78;;
5981;SDS011;3018;48.730;9.336;2022-07-29T09:20:09;4.00;;;3.58;;
5981;SDS011;3018;48.730;9.336;2022-07-29T09:22:35;4.93;;;3.67;;
5981;SDS011;3018;48.730;9.336;2022-07-29T09:25:04;5.43;;;3.72;;
5981;SDS011;3018;48.730;9.336;2022-07-29T09:27:30;4.72;;;3.65;;
5981;SDS011;3018;48.730;9.336;2022-07-29T09:29:57;5.43;;;3.83;;
5981;SDS011;3018;48.730;9.336;2022-07-29T09:32:23;5.93;;;4.20;;
5981;SDS011;3018;48.730;9.336;2022-07-29T09:34:50;4.00;;;3.70;;
5981;SDS011;3018;48.730;9.336;2022-07-29T09:37:25;4.00;;;3.70;;
5981;SDS011;3018;48.730;9.336;2022-07-29T09:39:51;4.97;;;3.58;;
5981;SDS011;3018;48.730;9.336;2022-07-29T09:42:27;4.40;;;3.53;;
5981;SDS011;3018;48.730;9.336;2022-07-29T09:44:53;4.80;;;4.22;;
5981;SDS011;3018;48.730;9.336;2022-07-29T09:47:19;3.97;;;3.63;;
5981;SDS011;3018;48.730;9.336;2022-07-29T09:49:50;4.28;;;3.20;;
5981;SDS011;3018;48.730;9.336;2022-07-29T09:52:16;6.07;;;3.50;;
5981;SDS011;3018;48.730;9.336;2022-07-29T09:54:42;4.70;;;3.83;;
5981;SDS011;3018;48.730;9.336;2022-07-29T09:57:09;3.42;;;3.22;;
5981;SDS011;3018;48.730;9.336;2022-07-29T09:59:50;3.67;;;3.40;;
5981;SDS011;3018;48.730;9.336;2022-07-29T10:02:21;3.92;;;3.67;;
5981;SDS011;3018;48.730;9.336;2022-07-29T10:04:48;3.80;;;3.38;;
5981;SDS011;3018;48.730;9.336;2022-07-29T10:07:15;3.53;;;3.22;;
5981;SDS011;3018;48.730;9.336;2022-07-29T10:09:49;4.53;;;3.63;;
5981;SDS011;3018;48.730;9.336;2022-07-29T10:12:15;3.70;;;3.45;;
5981;SDS011;3018;48.730;9.336;2022-07-29T10:14:41;3.72;;;3.42;;
5981;SDS011;3018;48.730;9.336;2022-07-29T10:17:11;4.18;;;3.60;;
5981;SDS011;3018;48.730;9.336;2022-07-29T10:19:38;3.42;;;3.13;;
5981;SDS011;3018;48.730;9.336;2022-07-29T10:22:05;4.72;;;3.70;;
5981;SDS011;3018;48.730;9.336;2022-07-29T10:24:32;3.70;;;3.40;;
5981;SDS011;3018;48.730;9.336;2022-07-29T10:26:59;4.40;;;3.78;;
5981;SDS011;3018;48.730;9.336;2022-07-29T10:29:25;3.70;;;3.40;;
5981;SDS011;3018;48.730;9.336;2022-07-29T10:31:54;3.92;;;3.53;;
5981;SDS011;3018;48.730;9.336;2022-07-29T10:34:30;5.82;;;4.32;;
5981;SDS011;3018;48.730;9.336;2022-07-29T10:37:00;3.65;;;3.28;;
5981;SDS011;3018;48.730;9.336;2022-07-29T10:39:33;4.18;;;3.60;;
5981;SDS011;3018;48.730;9.336;2022-07-29T10:42:06;3.42;;;3.10;;
5981;SDS011;3018;48.730;9.336;2022-07-29T10:44:35;3.97;;;3.60;;
5981;SDS011;3018;48.730;9.336;2022-07-29T10:47:05;4.22;;;3.83;;
5981;SDS011;3018;48.730;9.336;2022-07-29T10:49:32;7.22;;;3.53;;
5981;SDS011;3018;48.730;9.336;2022-07-29T10:52:03;8.30;;;3.72;;
5981;SDS011;3018;48.730;9.336;2022-07-29T10:54:37;3.40;;;3.20;;
5981;SDS011;3018;48.730;9.336;2022-07-29T10:57:10;6.38;;;3.78;;
5981;SDS011;3018;48.730;9.336;2022-07-29T10:59:37;4.22;;;3.90;;
5981;SDS011;3018;48.730;9.336;2022-07-29T11:02:07;4.10;;;3.58;;
5981;SDS011;3018;48.730;9.336;2022-07-29T11:05:02;4.10;;;3.70;;
5981;SDS011;3018;48.730;9.336;2022-07-29T11:07:29;3.60;;;3.30;;
5981;SDS011;3018;48.730;9.336;2022-07-29T11:12:46;4.43;;;4.03;;
5981;SDS011;3018;48.730;9.336;2022-07-29T11:15:13;4.20;;;3.42;;
5981;SDS011;3018;48.730;9.336;2022-07-29T11:18:02;4.18;;;3.80;;
5981;SDS011;3018;48.730;9.336;2022-07-29T11:20:34;4.05;;;3.75;;
5981;SDS011;3018;48.730;9.336;2022-07-29T11:23:01;6.53;;;3.80;;
5981;SDS011;3018;48.730;9.336;2022-07-29T11:25:27;5.15;;;4.38;;
5981;SDS011;3018;48.730;9.336;2022-07-29T11:27:54;4.60;;;4.20;;
5981;SDS011;3018;48.730;9.336;2022-07-29T11:30:46;9.65;;;3.67;;
5981;SDS011;3018;48.730;9.336;2022-07-29T11:33:26;14.48;;;3.63;;
5981;SDS011;3018;48.730;9.336;2022-07-29T11:38:35;17.65;;;4.25;;
5981;SDS011;3018;48.730;9.336;2022-07-29T11:41:20;10.20;;;3.90;;
5981;SDS011;3018;48.730;9.336;2022-07-29T11:43:47;18.45;;;6.22;;
5981;SDS011;3018;48.730;9.336;2022-07-29T11:46:13;9.80;;;4.65;;
5981;SDS011;3018;48.730;9.336;2022-07-29T11:48:41;6.30;;;2.72;;
5981;SDS011;3018;48.730;9.336;2022-07-29T11:51:09;3.55;;;2.92;;
5981;SDS011;3018;48.730;9.336;2022-07-29T11:53:36;3.30;;;2.80;;
5981;SDS011;3018;48.730;9.336;2022-07-29T11:56:03;7.43;;;2.60;;
5981;SDS011;3018;48.730;9.336;2022-07-29T11:58:30;9.48;;;2.58;;
5981;SDS011;3018;48.730;9.336;2022-07-29T12:00:56;2.58;;;2.38;;
5981;SDS011;3018;48.730;9.336;2022-07-29T12:03:23;2.63;;;2.47;;
5981;SDS011;3018;48.730;9.336;2022-07-29T12:05:50;5.10;;;3.65;;
5981;SDS011;3018;48.730;9.336;2022-07-29T12:08:17;5.38;;;3.70;;
5981;SDS011;3018;48.730;9.336;2022-07-29T12:10:46;5.60;;;3.75;;
5981;SDS011;3018;48.730;9.336;2022-07-29T12:13:13;6.10;;;2.97;;
5981;SDS011;3018;48.730;9.336;2022-07-29T12:15:40;3.03;;;2.83;;
5981;SDS011;3018;48.730;9.336;2022-07-29T12:20:56;6.28;;;3.47;;
5981;SDS011;3018;48.730;9.336;2022-07-29T12:23:22;6.30;;;3.92;;
5981;SDS011;3018;48.730;9.336;2022-07-29T12:25:50;5.68;;;3.03;;
5981;SDS011;3018;48.730;9.336;2022-07-29T12:28:17;4.22;;;3.10;;
5981;SDS011;3018;48.730;9.336;2022-07-29T12:30:44;3.83;;;3.42;;
5981;SDS011;3018;48.730;9.336;2022-07-29T12:33:18;4.78;;;3.53;;
5981;SDS011;3018;48.730;9.336;2022-07-29T12:35:45;3.30;;;2.97;;
5981;SDS011;3018;48.730;9.336;2022-07-29T12:38:12;3.13;;;2.90;;
5981;SDS011;3018;48.730;9.336;2022-07-29T12:40:39;3.28;;;2.97;;
5981;SDS011;3018;48.730;9.336;2022-07-29T12:43:07;4.82;;;3.28;;
5981;SDS011;3018;48.730;9.336;2022-07-29T12:45:34;6.03;;;3.80;;
5981;SDS011;3018;48.730;9.336;2022-07-29T12:48:00;4.45;;;3.53;;
5981;SDS011;3018;48.730;9.336;2022-07-29T12:50:27;4.82;;;3.78;;
5981;SDS011;3018;48.730;9.336;2022-07-29T12:52:53;4.40;;;4.00;;
5981;SDS011;3018;48.730;9.336;2022-07-29T12:58:01;3.92;;;3.50;;
5981;SDS011;3018;48.730;9.336;2022-07-29T13:00:28;5.22;;;4.00;;
5981;SDS011;3018;48.730;9.336;2022-07-29T13:02:55;7.55;;;6.47;;
5981;SDS011;3018;48.730;9.336;2022-07-29T13:05:22;4.70;;;4.10;;
5981;SDS011;3018;48.730;9.336;2022-07-29T13:07:49;4.18;;;3.80;;
5981;SDS011;3018;48.730;9.336;2022-07-29T13:10:16;4.32;;;3.88;;
5981;SDS011;3018;48.730;9.336;2022-07-29T13:13:02;4.13;;;3.83;;
5981;SDS011;3018;48.730;9.336;2022-07-29T13:15:30;4.00;;;3.63;;
5981;SDS011;3018;48.730;9.336;2022-07-29T13:17:57;4.05;;;3.72;;
5981;SDS011;3018;48.730;9.336;2022-07-29T13:20:23;4.93;;;4.28;;
5981;SDS011;3018;48.730;9.336;2022-07-29T13:22:50;6.72;;;5.50;;
5981;SDS011;3018;48.730;9.336;2022-07-29T13:25:23;10.32;;;5.38;;
5981;SDS011;3018;48.730;9.336;2022-07-29T13:27:49;9.35;;;5.40;;
5981;SDS011;3018;48.730;9.336;2022-07-29T13:30:15;8.75;;;4.70;;
5981;SDS011;3018;48.730;9.336;2022-07-29T13:32:43;9.98;;;5.18;;
5981;SDS011;3018;48.730;9.336;2022-07-29T13:35:09;7.82;;;5.07;;
5981;SDS011;3018;48.730;9.336;2022-07-29T13:37:36;7.93;;;5.53;;
5981;SDS011;3018;48.730;9.336;2022-07-29T13:40:03;9.75;;;5.38;;
5981;SDS011;3018;48.730;9.336;2022-07-29T13:42:29;6.40;;;5.25;;
5981;SDS011;3018;48.730;9.336;2022-07-29T13:44:56;9.18;;;5.28;;
5981;SDS011;3018;48.730;9.336;2022-07-29T13:47:22;7.90;;;5.47;;
5981;SDS011;3018;48.730;9.336;2022-07-29T13:49:50;5.70;;;5.15;;
5981;SDS011;3018;48.730;9.336;2022-07-29T13:52:16;6.68;;;5.20;;
5981;SDS011;3018;48.730;9.336;2022-07-29T13:54:43;13.10;;;5.68;;
5981;SDS011;3018;48.730;9.336;2022-07-29T13:57:09;7.38;;;5.95;;
5981;SDS011;3018;48.730;9.336;2022-07-29T13:59:36;10.20;;;5.32;;
5981;SDS011;3018;48.730;9.336;2022-07-29T14:02:02;6.15;;;4.97;;
5981;SDS011;3018;48.730;9.336;2022-07-29T14:04:29;7.45;;;5.78;;
5981;SDS011;3018;48.730;9.336;2022-07-29T14:06:57;8.77;;;5.82;;
5981;SDS011;3018;48.730;9.336;2022-07-29T14:09:23;7.82;;;6.07;;
5981;SDS011;3018;48.730;9.336;2022-07-29T14:11:49;5.88;;;5.28;;
5981;SDS011;3018;48.730;9.336;2022-07-29T14:14:17;7.82;;;6.38;;
5981;SDS011;3018;48.730;9.336;2022-07-29T14:16:44;11.02;;;6.50;;
5981;SDS011;3018;48.730;9.336;2022-07-29T14:19:10;7.03;;;6.15;;
5981;SDS011;3018;48.730;9.336;2022-07-29T14:21:36;8.82;;;6.85;;
5981;SDS011;3018;48.730;9.336;2022-07-29T14:24:04;7.28;;;6.43;;
5981;SDS011;3018;48.730;9.336;2022-07-29T14:26:31;7.85;;;6.05;;
5981;SDS011;3018;48.730;9.336;2022-07-29T14:28:57;8.85;;;6.15;;
5981;SDS011;3018;48.730;9.336;2022-07-29T14:31:23;9.20;;;6.20;;
5981;SDS011;3018;48.730;9.336;2022-07-29T14:33:50;9.55;;;5.63;;
5981;SDS011;3018;48.730;9.336;2022-07-29T14:36:16;6.60;;;5.97;;
5981;SDS011;3018;48.730;9.336;2022-07-29T14:38:42;5.90;;;5.35;;
5981;SDS011;3018;48.730;9.336;2022-07-29T14:41:10;5.35;;;4.95;;
5981;SDS011;3018;48.730;9.336;2022-07-29T14:43:36;7.15;;;5.60;;
5981;SDS011;3018;48.730;9.336;2022-07-29T14:46:02;5.47;;;4.97;;
5981;SDS011;3018;48.730;9.336;2022-07-29T14:48:28;5.80;;;5.20;;
5981;SDS011;3018;48.730;9.336;2022-07-29T14:50:55;5.90;;;5.40;;
5981;SDS011;3018;48.730;9.336;2022-07-29T14:53:21;7.10;;;5.80;;
5981;SDS011;3018;48.730;9.336;2022-07-29T14:55:48;6.10;;;5.63;;
5981;SDS011;3018;48.730;9.336;2022-07-29T14:58:15;5.70;;;5.13;;
5981;SDS011;3018;48.730;9.336;2022-07-29T15:00:42;5.68;;;5.28;;
5981;SDS011;3018;48.730;9.336;2022-07-29T15:03:08;9.38;;;5.88;;
5981;SDS011;3018;48.730;9.336;2022-07-29T15:05:35;6.63;;;6.13;;
5981;SDS011;3018;48.730;9.336;2022-07-29T15:08:01;10.23;;;6.05;;
5981;SDS011;3018;48.730;9.336;2022-07-29T15:10:28;5.90;;;5.50;;
5981;SDS011;3018;48.730;9.336;2022-07-29T15:12:54;7.38;;;5.80;;
5981;SDS011;3018;48.730;9.336;2022-07-29T15:15:22;10.18;;;5.82;;
5981;SDS011;3018;48.730;9.336;2022-07-29T15:17:48;5.88;;;5.35;;
5981;SDS011;3018;48.730;9.336;2022-07-29T15:20:14;6.05;;;5.53;;
5981;SDS011;3018;48.730;9.336;2022-07-29T15:22:40;7.00;;;6.45;;
5981;SDS011;3018;48.730;9.336;2022-07-29T15:25:08;6.57;;;6.18;;
5981;SDS011;3018;48.730;9.336;2022-07-29T15:27:34;6.32;;;5.93;;
5981;SDS011;3018;48.730;9.336;2022-07-29T15:30:00;8.00;;;7.25;;
5981;SDS011;3018;48.730;9.336;2022-07-29T15:32:28;7.15;;;6.55;;
5981;SDS011;3018;48.730;9.336;2022-07-29T15:34:54;8.65;;;7.60;;